Ashley, North Dakota
Current Conditions -  °F | °C
As of 12:15 AM on Saturday 20 Dec 2014 (Local Time) from K7L2 Reporting Station
Clear Clear  
Wind Chill:   Ceiling: Unl
Heat Index: 16°   Visibility: 9mi
Dew Point: 16°   Wind: 6mph
Humidity: 100%   Direction: 110°ESE
Pressure: 29.95"   Gusts: NA
Location:  46.03°N, 99.37°W
Report Text: K7L2 200615Z AUTO 11005KT 9SM CLR M09/M09 A2995 RMK AO2
Loading
Personal Weather Stations






























Interactive Weather Map New forecast layout! Learn more

10-Day Weather Forecast

Advertisements
Track Severe Weather on mobile